Time;durP1;ratioP1;P1;durP2;ratioP2;P2;SDS_P1;SDS_P2;PMS_P1;PMS_P2;Temp;Humidity;BMP_temperature;BMP_pressure;BME280_temperature;BME280_humidity;BME280_pressure;Samples;Min_cycle;Max_cycle;Signal;HPM_P1;HPM_P2
2023/11/18 00:01:05;;;;;;;0.10;0.10;;;;;;;12.22;81.49;99984.09;7359530;19;20513;-61
2023/11/18 00:03:30;;;;;;;0.10;0.10;;;;;;;12.24;81.47;99978.78;7359760;19;20002;-61
2023/11/18 00:05:56;;;;;;;0.00;0.00;;;;;;;12.26;80.95;99983.03;7348830;19;20025;-61
2023/11/18 00:08:21;;;;;;;0.10;0.10;;;;;;;12.28;81.38;99972.53;7357385;19;20030;-61
2023/11/18 00:10:47;;;;;;;0.10;0.10;;;;;;;12.31;81.44;99959.28;7352350;19;20019;-60
2023/11/18 00:13:13;;;;;;;0.10;0.10;;;;;;;12.33;81.51;99960.09;7357922;19;20006;-61
2023/11/18 00:15:38;;;;;;;0.10;0.10;;;;;;;12.34;81.34;99954.78;7358971;19;20082;-62
2023/11/18 00:18:03;;;;;;;0.10;0.10;;;;;;;12.27;81.16;99936.78;7357640;19;19998;-61
2023/11/18 00:20:30;;;;;;;0.10;0.10;;;;;;;12.38;81.46;99945.03;7356662;19;20093;-61
2023/11/18 00:22:56;;;;;;;0.10;0.10;;;;;;;12.41;81.47;99921.31;7359727;19;20014;-62
2023/11/18 00:25:22;;;;;;;0.10;0.10;;;;;;;12.44;81.25;99921.22;7360484;19;21085;-60
2023/11/18 00:27:47;;;;;;;0.10;0.10;;;;;;;12.45;81.31;99926.38;7355996;19;20701;-61
2023/11/18 00:30:13;;;;;;;0.10;0.10;;;;;;;12.32;81.68;99885.09;7367220;19;20018;-61
2023/11/18 00:32:39;;;;;;;0.08;0.08;;;;;;;12.51;81.79;99912.16;7364918;19;19998;-62
2023/11/18 00:35:05;;;;;;;0.10;0.10;;;;;;;12.45;81.38;99894.94;7363237;19;20014;-60
2023/11/18 00:37:31;;;;;;;0.10;0.10;;;;;;;12.50;81.29;99902.59;7365326;19;20007;-62
2023/11/18 00:39:57;;;;;;;0.03;0.03;;;;;;;12.56;81.79;99902.34;7360321;19;20014;-60
2023/11/18 00:42:22;;;;;;;0.00;0.00;;;;;;;12.56;81.86;99891.84;7367771;19;20077;-61
2023/11/18 00:44:48;;;;;;;0.10;0.10;;;;;;;12.60;81.31;99893.44;7368403;19;20025;-62
2023/11/18 00:47:13;;;;;;;0.10;0.10;;;;;;;12.62;81.36;99881.13;7369300;19;20006;-61
2023/11/18 00:49:39;;;;;;;0.10;0.10;;;;;;;12.65;81.63;99878.38;7364063;19;20042;-60
2023/11/18 00:52:05;;;;;;;0.00;0.00;;;;;;;12.65;81.47;99870.50;7365284;19;20015;-61
2023/11/18 00:54:30;;;;;;;0.10;0.10;;;;;;;12.68;81.37;99865.16;7352230;19;20446;-62
2023/11/18 00:56:56;;;;;;;0.08;0.08;;;;;;;12.56;81.49;99836.84;7369723;19;20070;-62
2023/11/18 00:59:21;;;;;;;0.00;0.00;;;;;;;12.71;81.43;99853.66;7364242;19;20353;-62
2023/11/18 01:01:47;;;;;;;0.10;0.10;;;;;;;12.73;81.81;99847.44;7368248;19;20010;-61
2023/11/18 01:04:12;;;;;;;0.10;0.10;;;;;;;12.75;81.78;99843.91;7368802;19;20014;-60
2023/11/18 01:06:37;;;;;;;0.10;0.10;;;;;;;12.66;81.68;99819.81;7365320;19;20007;-62
2023/11/18 01:09:03;;;;;;;0.10;0.10;;;;;;;12.71;81.45;99823.06;7367266;19;20015;-61
2023/11/18 01:11:29;;;;;;;0.10;0.10;;;;;;;12.74;81.42;99816.84;7367313;19;20518;-62
2023/11/18 01:13:55;;;;;;;0.10;0.10;;;;;;;12.78;81.45;99820.19;7362140;19;20094;-62
2023/11/18 01:16:20;;;;;;;0.10;0.10;;;;;;;12.83;81.45;99820.84;7369046;19;20087;-61
2023/11/18 01:18:46;;;;;;;0.10;0.10;;;;;;;12.84;81.96;99820.75;7372712;19;20105;-61
2023/11/18 01:21:12;;;;;;;0.10;0.10;;;;;;;12.86;81.84;99821.53;7368689;19;20585;-62
2023/11/18 01:23:38;;;;;;;0.10;0.10;;;;;;;12.88;81.74;99818.84;7367920;19;20025;-61
2023/11/18 01:26:05;;;;;;;0.10;0.10;;;;;;;12.91;81.64;99805.59;7376351;19;20367;-61
2023/11/18 01:28:37;;;;;;;0.10;0.10;;;;;;;12.95;81.60;99799.28;7363558;19;20781;-62
2023/11/18 01:31:09;;;;;;;0.10;0.10;;;;;;;12.96;81.65;99795.75;7369590;19;20018;-62
2023/11/18 01:33:37;;;;;;;0.10;0.10;;;;;;;12.94;81.62;99793.19;7364999;19;20010;-62
2023/11/18 01:36:03;;;;;;;0.10;0.10;;;;;;;12.95;81.92;99789.66;7365772;19;20525;-62
2023/11/18 01:38:29;;;;;;;0.10;0.10;;;;;;;12.96;81.73;99790.50;7363419;19;20488;-61
2023/11/18 01:40:56;;;;;;;0.10;0.10;;;;;;;12.88;81.44;99780.41;7366057;19;20033;-61
2023/11/18 01:43:22;;;;;;;0.00;0.00;;;;;;;12.99;81.77;99788.59;7365620;19;20454;-61
2023/11/18 01:45:48;;;;;;;0.10;0.10;;;;;;;12.98;81.96;99775.56;7364205;19;20052;-62
2023/11/18 01:48:14;;;;;;;0.10;0.10;;;;;;;12.85;81.61;99756.09;7356811;19;20765;-62
2023/11/18 01:50:41;;;;;;;0.00;0.00;;;;;;;13.05;81.83;99784.00;7366958;19;20011;-62
2023/11/18 01:53:07;;;;;;;0.05;0.05;;;;;;;13.06;81.64;99781.28;7364767;19;20497;-62
2023/11/18 01:55:34;;;;;;;0.05;0.05;;;;;;;13.07;81.63;99785.59;7364778;19;20026;-59
2023/11/18 01:58:06;;;;;;;0.10;0.10;;;;;;;13.07;81.77;99775.09;7366464;19;20013;-62
2023/11/18 02:00:34;;;;;;;0.10;0.10;;;;;;;13.10;81.68;99777.59;7365159;19;20018;-61
2023/11/18 02:02:59;;;;;;;0.10;0.10;;;;;;;12.99;81.70;99753.69;7362484;19;20018;-61
2023/11/18 02:05:25;;;;;;;0.10;0.10;;;;;;;13.13;81.50;99781.88;7369032;19;20014;-62
2023/11/18 02:07:51;;;;;;;0.05;0.05;;;;;;;13.13;81.52;99780.09;7359776;19;20010;-62
2023/11/18 02:10:17;;;;;;;0.00;0.00;;;;;;;13.02;81.65;99747.44;7365357;19;20021;-61
2023/11/18 02:12:57;;;;;;;0.10;0.10;;;;;;;13.21;81.52;99775.34;7363533;19;20010;-60
2023/11/18 02:15:25;;;;;;;0.10;0.10;;;;;;;13.15;81.52;99759.03;7365636;19;20953;-62
2023/11/18 02:17:53;;;;;;;0.10;0.10;;;;;;;13.21;81.38;99759.59;7362058;19;20018;-62
2023/11/18 02:20:21;;;;;;;0.03;0.03;;;;;;;13.21;81.73;99759.59;7371091;19;20315;-62
2023/11/18 02:22:46;;;;;;;0.10;0.10;;;;;;;13.23;81.64;99759.56;7371590;19;20421;-62
2023/11/18 02:25:18;;;;;;;0.10;0.10;;;;;;;13.28;81.60;99754.06;7367130;19;20018;-62
2023/11/18 02:27:45;;;;;;;0.10;0.10;;;;;;;13.24;81.66;99743.75;7361900;19;20010;-61
2023/11/18 02:30:13;;;;;;;0.10;0.10;;;;;;;13.18;81.36;99727.44;7367119;19;20730;-62
2023/11/18 02:33:02;;;;;;;0.10;0.10;;;;;;;13.32;81.41;99726.78;7363026;19;20033;-62
2023/11/18 02:35:37;;;;;;;0.00;0.00;;;;;;;13.33;81.35;99731.09;7366661;19;20023;-62
2023/11/18 02:38:04;;;;;;;0.10;0.10;;;;;;;13.17;81.56;99697.72;7364734;19;20773;-60
2023/11/18 02:40:35;;;;;;;;;;;;;;;13.39;81.56;99725.56;7366231;19;20018;-62
2023/11/18 02:43:04;;;;;;;0.10;0.10;;;;;;;13.35;81.44;99729.25;7360428;19;20258;-62
2023/11/18 02:45:31;;;;;;;0.10;0.10;;;;;;;13.37;81.40;99727.38;7364676;19;20017;-62
2023/11/18 02:47:57;;;;;;;0.10;0.10;;;;;;;13.34;81.37;99717.06;7364864;19;20497;-62
2023/11/18 02:50:27;;;;;;;0.05;0.05;;;;;;;13.39;81.37;99709.81;7361327;19;20006;-61
2023/11/18 02:52:55;;;;;;;0.10;0.10;;;;;;;13.37;81.57;99711.66;7371637;19;20030;-63
2023/11/18 02:55:24;;;;;;;0.10;0.10;;;;;;;13.21;81.25;99680.97;7362142;19;20010;-61
2023/11/18 02:57:51;;;;;;;0.10;0.10;;;;;;;13.35;81.44;99693.38;7361500;19;20879;-62
2023/11/18 03:00:25;;;;;;;0.10;0.10;;;;;;;13.40;81.29;99701.03;7365001;19;20014;-62
2023/11/18 03:02:51;;;;;;;0.00;0.00;;;;;;;13.41;81.56;99694.84;7362801;19;20010;-61
2023/11/18 03:05:17;;;;;;;0.10;0.10;;;;;;;13.41;81.59;99685.22;7363971;19;20017;-61
2023/11/18 03:07:49;;;;;;;0.10;0.10;;;;;;;13.47;81.23;99681.41;7365105;19;20365;-61
2023/11/18 03:10:21;;;;;;;0.00;0.00;;;;;;;13.48;81.19;99683.09;7363668;19;20030;-61
2023/11/18 03:12:52;;;;;;;0.10;0.10;;;;;;;13.50;81.63;99681.28;7368749;19;20034;-62
2023/11/18 03:15:18;;;;;;;0.10;0.10;;;;;;;13.49;81.65;99674.34;7367064;19;20011;-62
2023/11/18 03:17:45;;;;;;;0.00;0.00;;;;;;;13.53;81.27;99686.34;7364451;19;20014;-62
2023/11/18 03:20:14;;;;;;;0.10;0.10;;;;;;;13.55;81.43;99689.75;7359042;19;20010;-61
2023/11/18 03:22:40;;;;;;;0.10;0.10;;;;;;;13.59;81.17;99686.06;7366185;19;20018;-62
2023/11/18 03:25:07;;;;;;;0.05;0.05;;;;;;;13.62;81.35;99688.50;7362778;19;20022;-62
2023/11/18 03:27:33;;;;;;;0.10;0.10;;;;;;;13.48;81.19;99656.88;7363246;19;20018;-62
2023/11/18 03:29:58;;;;;;;0.10;0.10;;;;;;;13.69;81.10;99671.53;7363703;19;20024;-62
2023/11/18 03:32:24;;;;;;;0.10;0.10;;;;;;;13.74;80.99;99664.28;7358811;19;20011;-62
2023/11/18 03:34:49;;;;;;;0.00;0.00;;;;;;;13.67;81.37;99644.53;7360520;19;20682;-62
2023/11/18 03:37:14;;;;;;;0.10;0.10;;;;;;;13.82;81.24;99660.41;7363079;19;20022;-62
2023/11/18 03:39:40;;;;;;;0.00;0.00;;;;;;;13.86;81.38;99661.94;7365758;19;20023;-62
2023/11/18 03:42:05;;;;;;;0.10;0.10;;;;;;;13.89;81.22;99665.25;7359996;19;20014;-60
2023/11/18 03:44:31;;;;;;;0.10;0.10;;;;;;;13.90;81.05;99655.59;7360034;19;20006;-61
2023/11/18 03:46:56;;;;;;;0.10;0.10;;;;;;;13.96;81.24;99660.50;7355243;19;20027;-62
2023/11/18 03:49:21;;;;;;;0.10;0.10;;;;;;;13.95;80.82;99651.78;7361982;19;20002;-62
2023/11/18 03:51:47;;;;;;;0.10;0.10;;;;;;;14.02;80.89;99652.31;7362572;19;20044;-62
2023/11/18 03:54:13;;;;;;;0.10;0.10;;;;;;;13.99;81.00;99647.25;7353125;19;20031;-62
2023/11/18 03:56:39;;;;;;;0.08;0.08;;;;;;;14.09;81.24;99669.44;7361535;19;20010;-62
2023/11/18 03:59:04;;;;;;;0.10;0.10;;;;;;;14.12;80.84;99661.38;7365397;19;20030;-61
2023/11/18 04:01:30;;;;;;;0.10;0.10;;;;;;;14.15;80.97;99648.09;7364572;19;19999;-61
2023/11/18 04:03:56;;;;;;;0.10;0.10;;;;;;;14.19;81.37;99651.38;7371608;19;20354;-61
2023/11/18 04:06:22;;;;;;;0.10;0.10;;;;;;;14.21;80.95;99639.88;7368073;19;19999;-62
2023/11/18 04:08:48;;;;;;;0.17;0.17;;;;;;;14.24;81.25;99637.09;7368442;19;20403;-62
2023/11/18 04:11:14;;;;;;;0.10;0.10;;;;;;;14.27;80.87;99636.91;7366672;19;20078;-62
2023/11/18 04:13:43;;;;;;;0.10;0.10;;;;;;;14.33;81.12;99632.25;7363729;19;20110;-61
2023/11/18 04:16:16;;;;;;;0.10;0.10;;;;;;;14.36;80.98;99634.72;7367029;19;20769;-59
2023/11/18 04:18:45;;;;;;;0.00;0.00;;;;;;;14.39;81.36;99629.28;7337512;19;20409;-62
2023/11/18 04:21:12;;;;;;;0.10;0.10;;;;;;;14.39;81.22;99624.03;7369508;19;20025;-61
2023/11/18 04:23:39;;;;;;;0.10;0.10;;;;;;;14.38;81.02;99622.34;7369194;19;20017;-62
2023/11/18 04:26:07;;;;;;;0.10;0.10;;;;;;;14.43;81.16;99630.81;7363971;19;20837;-62
2023/11/18 04:28:32;;;;;;;0.10;0.10;;;;;;;14.46;81.50;99646.41;7371042;19;20486;-61
2023/11/18 04:30:58;;;;;;;0.10;0.10;;;;;;;14.35;81.19;99612.03;7364401;19;20011;-61
2023/11/18 04:33:24;;;;;;;0.10;0.10;;;;;;;14.50;81.06;99624.34;7371115;19;20030;-62
2023/11/18 04:35:50;;;;;;;0.10;0.10;;;;;;;14.52;81.06;99625.09;7376444;19;20023;-62
2023/11/18 04:38:15;;;;;;;0.10;0.10;;;;;;;14.33;80.85;99593.72;7372886;19;20029;-62
2023/11/18 04:40:41;;;;;;;0.03;0.03;;;;;;;14.57;80.92;99633.56;7369354;19;20293;-62
2023/11/18 04:43:07;;;;;;;0.10;0.10;;;;;;;14.57;80.90;99623.06;7365890;19;20453;-62
2023/11/18 04:45:33;;;;;;;0.10;0.10;;;;;;;14.59;81.23;99613.28;7363645;19;20034;-61
2023/11/18 04:47:59;;;;;;;0.00;0.00;;;;;;;14.60;81.38;99604.50;7364480;19;20086;-61
2023/11/18 04:50:25;;;;;;;0.08;0.08;;;;;;;14.62;80.76;99615.75;7357980;19;20074;-62
2023/11/18 04:52:50;;;;;;;0.10;0.10;;;;;;;14.62;81.12;99613.13;7375131;19;20015;-62
2023/11/18 04:55:15;;;;;;;0.10;0.10;;;;;;;14.64;81.04;99607.78;7371949;19;20006;-62
2023/11/18 04:57:41;;;;;;;0.10;0.10;;;;;;;14.54;81.30;99589.06;7367368;19;20014;-62
2023/11/18 05:00:10;;;;;;;0.10;0.10;;;;;;;14.68;81.01;99609.31;7362286;19;20007;-61
2023/11/18 05:02:39;;;;;;;0.10;0.10;;;;;;;14.57;81.42;99583.66;7363781;19;20370;-62
2023/11/18 05:05:08;;;;;;;0.08;0.08;;;;;;;14.69;80.91;99603.09;7365038;19;20023;-61
2023/11/18 05:07:34;;;;;;;0.10;0.10;;;;;;;14.70;80.94;99602.16;7369679;19;20495;-62
2023/11/18 05:10:00;;;;;;;0.10;0.10;;;;;;;14.58;81.19;99585.31;7367242;19;20018;-62
2023/11/18 05:12:26;;;;;;;0.00;0.00;;;;;;;14.58;80.80;99582.69;7370493;19;20485;-61
2023/11/18 05:14:52;;;;;;;0.10;0.10;;;;;;;14.71;81.16;99599.47;7333046;19;20034;-62
2023/11/18 05:17:17;;;;;;;0.10;0.10;;;;;;;14.73;81.00;99608.09;7369166;19;20002;-62
2023/11/18 05:19:43;;;;;;;0.10;0.10;;;;;;;14.69;80.97;99598.69;7364642;19;20010;-62
2023/11/18 05:22:09;;;;;;;0.10;0.10;;;;;;;14.75;81.04;99616.75;7367710;19;20017;-62
2023/11/18 05:24:34;;;;;;;0.10;0.10;;;;;;;14.77;81.33;99619.28;7368714;19;20384;-62
2023/11/18 05:27:03;;;;;;;0.10;0.10;;;;;;;14.76;81.12;99607.94;7362898;19;20035;-61
2023/11/18 05:29:29;;;;;;;0.10;0.10;;;;;;;14.78;81.04;99589.44;7359911;19;20007;-62
2023/11/18 05:31:54;;;;;;;0.00;0.00;;;;;;;14.58;81.51;99551.19;7366400;19;20029;-62
2023/11/18 05:34:20;;;;;;;0.10;0.10;;;;;;;14.82;81.01;99596.22;7364130;19;20739;-61
2023/11/18 05:36:47;;;;;;;0.10;0.10;;;;;;;14.79;81.34;99591.97;7367509;19;20003;-62
2023/11/18 05:39:14;;;;;;;0.10;0.10;;;;;;;14.81;81.48;99585.81;7362089;19;20010;-62
2023/11/18 05:41:40;;;;;;;;;;;;;;;14.92;81.08;99592.13;7366951;19;20014;-62
2023/11/18 05:44:08;;;;;;;0.10;0.10;;;;;;;14.86;80.87;99586.38;7363839;19;19926;-61
2023/11/18 05:46:34;;;;;;;0.10;0.10;;;;;;;14.85;81.12;99571.53;7361361;19;20010;-62
2023/11/18 05:49:07;;;;;;;0.00;0.00;;;;;;;14.86;80.86;99575.88;7365978;19;20010;-62
2023/11/18 05:51:33;;;;;;;0.10;0.10;;;;;;;14.79;81.34;99562.22;7368042;19;20014;-61
2023/11/18 05:53:58;;;;;;;0.10;0.10;;;;;;;14.78;81.29;99553.50;7359005;19;20045;-62
2023/11/18 05:56:24;;;;;;;0.00;0.00;;;;;;;14.76;81.09;99563.25;7368475;19;20010;-62
2023/11/18 05:58:50;;;;;;;0.10;0.10;;;;;;;14.71;81.37;99572.34;7367485;19;20118;-62
2023/11/18 06:01:18;;;;;;;0.10;0.10;;;;;;;14.64;81.46;99560.47;7358024;19;20090;-62
2023/11/18 06:03:45;;;;;;;0.00;0.00;;;;;;;14.70;81.02;99561.00;7372019;19;20587;-62
2023/11/18 06:06:12;;;;;;;0.10;0.10;;;;;;;14.61;81.44;99550.16;7365380;19;20407;-62
2023/11/18 06:08:41;;;;;;;0.10;0.10;;;;;;;14.66;81.19;99564.72;7362295;19;20014;-61
2023/11/18 06:11:13;;;;;;;0.10;0.10;;;;;;;14.69;81.46;99568.94;7354641;19;20007;-61
2023/11/18 06:13:43;;;;;;;0.10;0.10;;;;;;;14.69;81.48;99575.03;7363411;19;20710;-62
2023/11/18 06:16:21;;;;;;;0.10;0.10;;;;;;;14.69;81.65;99574.19;7360107;19;20014;-62
2023/11/18 06:18:48;;;;;;;0.10;0.10;;;;;;;14.63;81.48;99570.16;7359487;19;20014;-62
2023/11/18 06:21:15;;;;;;;0.10;0.10;;;;;;;14.65;81.42;99560.41;7364040;19;20745;-62
2023/11/18 06:23:45;;;;;;;0.10;0.10;;;;;;;14.51;81.38;99539.34;7363167;19;20022;-62
2023/11/18 06:26:11;;;;;;;0.10;0.10;;;;;;;14.66;81.82;99564.72;7340600;19;20074;-62
2023/11/18 06:28:44;;;;;;;0.10;0.10;;;;;;;14.68;81.63;99552.34;7363666;19;20026;-62
2023/11/18 06:31:11;;;;;;;0.10;0.10;;;;;;;14.64;81.60;99556.06;7342896;19;20090;-62
2023/11/18 06:33:42;;;;;;;0.10;0.10;;;;;;;14.66;81.35;99559.47;7367458;19;20405;-62
2023/11/18 06:36:18;;;;;;;0.10;0.10;;;;;;;14.61;81.35;99561.53;7368284;19;20508;-62
2023/11/18 06:38:44;;;;;;;0.10;0.10;;;;;;;14.56;81.59;99557.47;7362521;19;20691;-62
2023/11/18 06:41:13;;;;;;;0.10;0.10;;;;;;;14.61;81.37;99563.31;7366520;19;20833;-62
2023/11/18 06:46:23;;;;;;;0.10;0.10;;;;;;;14.59;81.77;99558.13;7369262;19;20098;-62
2023/11/18 06:48:57;;;;;;;0.10;0.10;;;;;;;14.64;81.97;99552.59;7365191;19;20021;-62
2023/11/18 06:51:24;;;;;;;0.10;0.10;;;;;;;14.61;81.54;99555.41;7367685;19;20014;-62
2023/11/18 06:53:50;;;;;;;0.10;0.10;;;;;;;14.61;81.74;99547.53;7359646;19;20073;-62
2023/11/18 06:56:16;;;;;;;0.10;0.10;;;;;;;14.62;81.74;99542.19;7367044;19;20014;-62
2023/11/18 06:58:42;;;;;;;0.10;0.10;;;;;;;14.66;81.92;99538.44;7363658;19;20499;-62
2023/11/18 07:01:09;;;;;;;0.10;0.10;;;;;;;14.65;81.68;99535.91;7364394;19;20048;-62
2023/11/18 07:03:35;;;;;;;0.10;0.10;;;;;;;14.66;81.55;99537.63;7361530;19;20006;-62
2023/11/18 07:06:05;;;;;;;0.10;0.10;;;;;;;14.69;81.74;99546.13;7362549;19;20840;-61
2023/11/18 07:08:31;;;;;;;0.10;0.10;;;;;;;14.72;82.05;99553.84;7361840;19;20014;-62
2023/11/18 07:10:56;;;;;;;0.10;0.10;;;;;;;14.77;81.98;99561.47;7351333;19;20066;-62
2023/11/18 07:13:23;;;;;;;0.10;0.10;;;;;;;14.75;81.73;99535.28;7363699;19;20007;-62
2023/11/18 07:15:48;;;;;;;0.10;0.10;;;;;;;14.75;81.48;99537.94;7363299;19;20062;-62
2023/11/18 07:18:14;;;;;;;0.10;0.10;;;;;;;14.77;81.77;99546.56;7365201;19;20442;-63
2023/11/18 07:20:39;;;;;;;0.10;0.10;;;;;;;14.74;81.36;99536.22;7358556;19;20026;-62
2023/11/18 07:23:05;;;;;;;0.10;0.10;;;;;;;14.74;81.13;99540.63;7361615;19;20006;-62
2023/11/18 07:25:30;;;;;;;0.10;0.10;;;;;;;14.70;81.56;99533.84;7356873;19;20382;-62
2023/11/18 07:27:56;;;;;;;0.10;0.10;;;;;;;14.68;81.64;99520.81;7363549;19;20488;-62
2023/11/18 07:30:22;;;;;;;0.10;0.10;;;;;;;14.69;81.54;99548.75;7362648;19;20027;-62
2023/11/18 07:32:48;;;;;;;0.10;0.10;;;;;;;14.66;81.34;99548.13;7349519;19;19998;-63
2023/11/18 07:35:13;;;;;;;0.10;0.10;;;;;;;14.47;81.43;99528.16;7358384;19;21594;-62
2023/11/18 07:37:38;;;;;;;0.10;0.10;;;;;;;14.47;81.56;99524.66;7370417;19;20027;-62
2023/11/18 07:40:05;;;;;;;0.10;0.10;;;;;;;14.57;81.59;99540.75;7360700;19;20006;-60
2023/11/18 07:42:36;;;;;;;0.00;0.00;;;;;;;14.60;81.77;99551.06;7370167;19;20041;-62
2023/11/18 07:45:04;;;;;;;0.10;0.10;;;;;;;14.56;81.63;99541.72;7358898;19;20121;-62
2023/11/18 07:47:34;;;;;;;0.10;0.10;;;;;;;14.55;81.79;99546.13;7371999;19;20018;-63
2023/11/18 07:49:59;;;;;;;0.10;0.10;;;;;;;14.52;81.81;99547.13;7366089;19;20016;-63
2023/11/18 07:52:27;;;;;;;0.10;0.10;;;;;;;14.50;81.81;99530.63;7374296;19;20097;-63
2023/11/18 07:54:53;;;;;;;0.10;0.10;;;;;;;14.51;81.53;99534.09;7364555;19;20015;-63
2023/11/18 07:57:19;;;;;;;0.10;0.10;;;;;;;14.48;81.58;99529.00;7366175;19;20010;-63
2023/11/18 07:59:44;;;;;;;0.10;0.10;;;;;;;14.47;81.78;99528.16;7369841;19;20011;-63
2023/11/18 08:02:10;;;;;;;0.08;0.08;;;;;;;14.46;81.72;99536.09;7365940;19;20011;-62
2023/11/18 08:04:36;;;;;;;0.10;0.10;;;;;;;14.32;81.63;99515.03;7370445;19;21026;-63
2023/11/18 08:07:04;;;;;;;0.10;0.10;;;;;;;14.43;81.78;99538.88;7366793;19;20017;-63
2023/11/18 08:09:31;;;;;;;0.10;0.10;;;;;;;14.41;81.58;99544.25;7366464;19;20015;-62
2023/11/18 08:11:56;;;;;;;0.10;0.10;;;;;;;14.28;81.59;99523.06;7370290;19;20014;-63
2023/11/18 08:14:22;;;;;;;0.10;0.10;;;;;;;14.25;81.56;99517.16;7364552;19;20370;-63
2023/11/18 08:16:47;;;;;;;0.10;0.10;;;;;;;14.40;81.73;99549.59;7372351;19;20867;-62
2023/11/18 08:19:13;;;;;;;0.10;0.10;;;;;;;14.16;81.95;99517.69;7363444;19;20015;-63
2023/11/18 08:21:38;;;;;;;0.10;0.10;;;;;;;14.38;81.61;99561.94;7363907;19;20932;-63
2023/11/18 08:24:08;;;;;;;0.10;0.10;;;;;;;14.25;82.05;99539.00;7361103;19;20011;-63
2023/11/18 08:26:35;;;;;;;0.10;0.10;;;;;;;14.37;82.02;99555.00;7363947;19;20098;-63
2023/11/18 08:29:00;;;;;;;0.00;0.00;;;;;;;14.37;81.90;99558.47;7364573;19;20022;-63
2023/11/18 08:31:26;;;;;;;0.10;0.10;;;;;;;14.36;81.83;99556.78;7367018;19;20006;-63
2023/11/18 08:33:54;;;;;;;0.10;0.10;;;;;;;14.35;82.06;99538.50;7364062;19;20095;-62
2023/11/18 08:36:20;;;;;;;0.10;0.10;;;;;;;14.36;81.85;99550.69;7363648;19;20014;-63
2023/11/18 08:38:47;;;;;;;0.10;0.10;;;;;;;14.34;82.12;99548.13;7362567;19;21691;-63
2023/11/18 08:41:12;;;;;;;0.10;0.10;;;;;;;14.32;81.90;99536.03;7362233;19;20105;-63
2023/11/18 08:43:40;;;;;;;0.10;0.10;;;;;;;14.33;82.14;99558.72;7364973;19;20799;-63
2023/11/18 08:46:07;;;;;;;0.10;0.10;;;;;;;14.35;81.83;99564.75;7362138;19;20007;-63
2023/11/18 08:48:33;;;;;;;0.10;0.10;;;;;;;14.35;81.96;99575.25;7372464;19;19998;-63
2023/11/18 08:51:00;;;;;;;0.10;0.10;;;;;;;14.37;81.91;99562.88;7374089;19;20098;-63
2023/11/18 08:53:26;;;;;;;0.10;0.10;;;;;;;14.23;82.22;99540.84;7373477;19;20445;-63
2023/11/18 08:55:53;;;;;;;0.10;0.10;;;;;;;14.41;81.91;99552.13;7365354;19;20047;-63
2023/11/18 08:58:21;;;;;;;0.10;0.10;;;;;;;14.37;82.15;99536.63;7364108;19;19998;-63
2023/11/18 09:00:52;;;;;;;0.10;0.10;;;;;;;14.38;82.26;99527.81;7362092;19;20939;-63
2023/11/18 09:03:25;;;;;;;0.10;0.10;;;;;;;14.50;81.99;99548.16;7369513;19;20014;-63
2023/11/18 09:05:58;;;;;;;0.10;0.10;;;;;;;14.55;81.81;99538.25;7363956;19;20466;-63
2023/11/18 09:08:42;;;;;;;0.10;0.10;;;;;;;14.57;82.07;99538.97;7366920;19;20950;-63
2023/11/18 09:11:14;;;;;;;0.10;0.10;;;;;;;14.60;81.87;99532.69;7375721;19;20015;-63
2023/11/18 09:13:53;;;;;;;0.10;0.10;;;;;;;14.64;82.05;99532.41;7368373;19;20022;-63
2023/11/18 09:16:22;;;;;;;0.10;0.10;;;;;;;14.67;82.32;99524.38;7367509;19;20584;-63
2023/11/18 09:18:48;;;;;;;0.10;0.10;;;;;;;14.66;81.85;99512.19;7365453;19;20018;-63
2023/11/18 09:21:19;;;;;;;0.10;0.10;;;;;;;14.75;81.83;99521.28;7355792;19;20010;-63
2023/11/18 09:23:47;;;;;;;0.10;0.10;;;;;;;14.71;81.99;99499.63;7360068;19;20074;-63
2023/11/18 09:26:14;;;;;;;0.10;0.10;;;;;;;14.74;81.72;99488.91;7362589;19;20017;-63
2023/11/18 09:28:40;;;;;;;0.20;0.20;;;;;;;14.73;81.66;99487.22;7363139;19;20023;-63
2023/11/18 09:31:11;;;;;;;0.10;0.10;;;;;;;14.88;81.52;99501.22;7364100;19;20003;-63
2023/11/18 09:33:37;;;;;;;0.10;0.10;;;;;;;14.92;81.49;99522.94;7367967;19;20457;-63
2023/11/18 09:36:07;;;;;;;0.00;0.00;;;;;;;14.93;81.78;99514.09;7362267;19;20010;-63
2023/11/18 09:38:40;;;;;;;0.10;0.10;;;;;;;15.00;81.56;99510.16;7365884;19;20010;-63
2023/11/18 09:41:07;;;;;;;0.10;0.10;;;;;;;15.03;81.62;99504.72;7361306;19;20015;-63
2023/11/18 09:43:41;;;;;;;0.10;0.10;;;;;;;14.99;81.52;99497.97;7362881;19;20010;-63
2023/11/18 09:46:15;;;;;;;0.10;0.10;;;;;;;15.09;81.46;99499.09;7363002;19;20002;-63
2023/11/18 09:48:52;;;;;;;0.10;0.10;;;;;;;15.14;81.60;99501.44;7372521;19;20467;-63
2023/11/18 09:51:21;;;;;;;;;;;;;;;15.24;81.70;99506.06;7368917;19;20028;-63
2023/11/18 09:53:52;;;;;;;0.10;0.10;;;;;;;15.08;81.29;99497.41;7360685;19;19926;-63
2023/11/18 09:56:26;;;;;;;0.10;0.10;;;;;;;15.24;81.44;99498.16;7363033;19;20714;-63
2023/11/18 09:59:05;;;;;;;0.10;0.10;;;;;;;15.27;81.34;99503.25;7350870;19;20046;-63
2023/11/18 10:01:34;;;;;;;0.10;0.10;;;;;;;15.21;81.22;99503.63;7363977;19;20006;-63
2023/11/18 10:04:06;;;;;;;0.10;0.10;;;;;;;15.25;81.17;99513.00;7364331;19;20078;-64
2023/11/18 10:06:34;;;;;;;0.10;0.10;;;;;;;15.19;81.53;99494.97;7362342;19;20066;-63
2023/11/18 10:09:14;;;;;;;0.10;0.10;;;;;;;15.27;80.98;99503.25;7365505;19;20013;-63
2023/11/18 10:11:41;;;;;;;0.10;0.10;;;;;;;15.29;81.37;99522.41;7365333;19;20030;-63
2023/11/18 10:14:08;;;;;;;0.10;0.10;;;;;;;15.23;81.40;99488.59;7328819;19;20018;-63
2023/11/18 10:16:33;;;;;;;0.10;0.10;;;;;;;15.32;81.25;99511.72;7362576;19;20023;-63
2023/11/18 10:19:00;;;;;;;0.10;0.10;;;;;;;15.19;81.34;99500.22;7359593;19;20589;-63
2023/11/18 10:21:39;;;;;;;0.10;0.10;;;;;;;15.42;81.14;99512.00;7363392;19;21487;-63
2023/11/18 10:24:10;;;;;;;0.10;0.10;;;;;;;15.42;81.43;99524.31;7346791;19;20537;-64
2023/11/18 10:26:38;;;;;;;0.10;0.10;;;;;;;15.32;81.29;99493.28;7361310;19;20010;-63
2023/11/18 10:29:08;;;;;;;0.10;0.10;;;;;;;15.45;81.23;99517.03;7352154;19;20464;-64
2023/11/18 10:31:37;;;;;;;0.10;0.10;;;;;;;15.47;80.98;99527.50;7363980;19;20014;-63
2023/11/18 10:34:04;;;;;;;0.10;0.10;;;;;;;15.50;81.21;99514.13;7358455;19;20002;-64
2023/11/18 10:36:31;;;;;;;0.10;0.10;;;;;;;15.50;81.42;99524.66;7365060;19;20007;-64
2023/11/18 10:38:56;;;;;;;;;;;;;;;15.60;81.58;99525.78;7357641;19;19998;-64
2023/11/18 10:41:25;;;;;;;0.10;0.10;;;;;;;15.57;81.26;99526.00;7360675;19;19919;-63
2023/11/18 10:44:05;;;;;;;0.10;0.10;;;;;;;15.57;81.12;99520.72;7357279;19;20627;-64
2023/11/18 10:46:32;;;;;;;0.10;0.10;;;;;;;15.58;80.99;99517.16;7357714;19;20038;-64
2023/11/18 10:49:00;;;;;;;0.10;0.10;;;;;;;15.60;81.00;99512.63;7358580;19;20044;-64
2023/11/18 10:51:26;;;;;;;0.10;0.10;;;;;;;15.61;80.88;99511.66;7361712;19;20698;-64
2023/11/18 10:53:53;;;;;;;0.10;0.10;;;;;;;15.58;81.25;99501.34;7364294;19;20688;-64
2023/11/18 10:56:28;;;;;;;0.10;0.10;;;;;;;15.61;81.09;99506.41;7354275;19;20481;-64
2023/11/18 10:58:58;;;;;;;0.10;0.10;;;;;;;15.69;80.88;99498.09;7361458;19;20756;-64
2023/11/18 11:01:29;;;;;;;0.10;0.10;;;;;;;15.71;80.88;99494.44;7360594;19;20013;-64
2023/11/18 11:03:55;;;;;;;0.10;0.10;;;;;;;15.68;80.89;99491.13;7361470;19;20018;-64
2023/11/18 11:06:23;;;;;;;0.00;0.00;;;;;;;15.67;80.94;99492.94;7369047;19;20475;-64
2023/11/18 11:08:50;;;;;;;0.10;0.10;;;;;;;15.71;81.00;99497.06;7360598;19;20010;-64
2023/11/18 11:11:21;;;;;;;0.10;0.10;;;;;;;15.77;81.00;99499.28;7355942;19;20573;-64
2023/11/18 11:14:00;;;;;;;0.10;0.10;;;;;;;15.79;81.37;99499.19;7357455;19;20022;-64
2023/11/18 11:16:37;;;;;;;0.10;0.10;;;;;;;15.82;81.22;99486.69;7360765;19;20045;-64
2023/11/18 11:19:08;;;;;;;0.10;0.10;;;;;;;15.80;81.12;99482.44;7359430;19;20083;-64
2023/11/18 11:21:47;;;;;;;0.10;0.10;;;;;;;15.88;81.45;99487.25;7357608;19;20038;-64
2023/11/18 11:24:33;;;;;;;0.10;0.10;;;;;;;15.92;81.26;99475.56;7357170;19;20027;-64
2023/11/18 11:27:18;;;;;;;0.10;0.10;;;;;;;15.97;81.15;99484.03;7356591;19;20014;-64
2023/11/18 11:29:52;;;;;;;0.10;0.10;;;;;;;15.94;80.94;99471.88;7353315;19;20014;-64
2023/11/18 11:32:30;;;;;;;0.08;0.08;;;;;;;16.00;80.64;99475.91;7353760;19;20572;-64
2023/11/18 11:35:05;;;;;;;0.10;0.10;;;;;;;15.90;80.85;99459.00;7360605;19;20018;-64
2023/11/18 11:37:34;;;;;;;0.10;0.10;;;;;;;16.03;80.81;99483.63;7361862;19;20045;-64
2023/11/18 11:40:04;;;;;;;0.10;0.10;;;;;;;15.92;81.18;99465.88;7345682;19;20015;-64